Time;durP1;ratioP1;P1;durP2;ratioP2;P2;SDS_P1;SDS_P2;PMS_P1;PMS_P2;Temp;Humidity;BMP_temperature;BMP_pressure;BME280_temperature;BME280_humidity;BME280_pressure;Samples;Min_cycle;Max_cycle;Signal;HPM_P1;HPM_P2
2023/01/21 00:02:14;;;;;;;19.65;12.82;;;-0.70;1.00;;;;;;7368771;19;20010;-76
2023/01/21 00:04:46;;;;;;;18.58;12.02;;;-0.70;1.00;;;;;;7369285;19;20023;-78
2023/01/21 00:07:16;;;;;;;19.33;12.90;;;-0.70;1.00;;;;;;7368879;19;20446;-78
2023/01/21 00:09:46;;;;;;;17.13;11.75;;;-0.60;1.00;;;;;;7386165;19;20026;-79
2023/01/21 00:12:16;;;;;;;19.58;11.88;;;-0.60;1.00;;;;;;7390481;19;20450;-78
2023/01/21 00:14:46;;;;;;;20.88;12.82;;;-0.60;1.00;;;;;;7367287;19;20088;-78
2023/01/21 00:17:16;;;;;;;18.45;11.48;;;-0.60;1.00;;;;;;7368648;19;20091;-78
2023/01/21 00:19:48;;;;;;;16.75;11.30;;;-0.70;1.00;;;;;;7365909;19;20613;-78
2023/01/21 00:22:18;;;;;;;17.77;11.73;;;-0.70;1.00;;;;;;7368834;19;20048;-78
2023/01/21 00:24:48;;;;;;;17.88;11.80;;;-0.60;1.00;;;;;;7367045;19;20010;-78
2023/01/21 00:27:18;;;;;;;18.15;11.80;;;-0.70;1.00;;;;;;7389764;19;20464;-77
2023/01/21 00:29:48;;;;;;;18.83;12.38;;;-0.70;1.00;;;;;;7365205;19;20515;-77
2023/01/21 00:32:18;;;;;;;20.13;12.15;;;-0.70;1.00;;;;;;7368612;19;20006;-78
2023/01/21 00:34:50;;;;;;;19.73;12.88;;;-0.70;1.00;;;;;;7367225;19;20085;-77
2023/01/21 00:37:20;;;;;;;20.10;13.10;;;-0.70;1.00;;;;;;7367532;19;20006;-78
2023/01/21 00:39:50;;;;;;;17.77;12.55;;;-0.70;1.00;;;;;;7365424;19;20006;-78
2023/01/21 00:42:20;;;;;;;19.00;12.93;;;-0.70;1.00;;;;;;7389809;19;20038;-79
2023/01/21 00:44:50;;;;;;;19.67;13.73;;;-0.80;1.00;;;;;;7374592;19;20018;-79
2023/01/21 00:47:20;;;;;;;20.45;13.98;;;-0.80;1.00;;;;;;7373168;19;20014;-78
2023/01/21 00:49:52;;;;;;;21.70;13.75;;;-0.90;1.00;;;;;;7373826;19;20014;-79
2023/01/21 00:52:22;;;;;;;23.23;13.40;;;-0.80;1.00;;;;;;7374007;19;20351;-78
2023/01/21 00:54:52;;;;;;;22.17;14.15;;;-0.90;1.00;;;;;;7373842;19;20451;-77
2023/01/21 00:57:22;;;;;;;21.45;13.85;;;-0.90;1.00;;;;;;7395391;19;20002;-78
2023/01/21 00:59:52;;;;;;;19.35;13.55;;;-0.90;1.00;;;;;;7371535;19;20555;-79
2023/01/21 01:02:22;;;;;;;22.50;13.23;;;-0.90;1.00;;;;;;7373926;19;20018;-78
2023/01/21 01:04:54;;;;;;;20.10;14.43;;;-0.90;1.00;;;;;;7374241;19;20039;-78
2023/01/21 01:07:24;;;;;;;23.13;13.60;;;-0.90;1.00;;;;;;7372917;19;20032;-78
2023/01/21 01:09:54;;;;;;;20.80;14.07;;;-0.90;1.00;;;;;;7371185;19;20022;-78
2023/01/21 01:12:24;;;;;;;18.52;13.63;;;-1.00;1.00;;;;;;7395025;19;20093;-78
2023/01/21 01:14:53;;;;;;;20.27;13.55;;;-1.00;1.00;;;;;;7373636;19;20003;-78
2023/01/21 01:17:23;;;;;;;22.38;13.57;;;-1.00;1.00;;;;;;7372746;19;20010;-77
2023/01/21 01:19:56;;;;;;;21.42;14.10;;;-1.00;1.00;;;;;;7372425;19;20034;-78
2023/01/21 01:22:26;;;;;;;18.85;13.45;;;-1.00;1.00;;;;;;7373412;19;20003;-78
2023/01/21 01:24:56;;;;;;;19.98;13.90;;;-0.90;1.00;;;;;;7373683;19;20023;-78
2023/01/21 01:27:26;;;;;;;20.17;14.00;;;-1.00;1.00;;;;;;7393753;19;20017;-77
2023/01/21 01:29:56;;;;;;;20.73;13.73;;;-0.90;1.00;;;;;;7371188;19;20011;-77
2023/01/21 01:32:25;;;;;;;21.27;13.85;;;-0.90;1.00;;;;;;7372318;19;20082;-78
2023/01/21 01:35:01;;;;;;;23.08;13.55;;;-1.00;1.00;;;;;;7371454;19;20022;-77
2023/01/21 01:37:30;;;;;;;22.00;14.35;;;-0.90;1.00;;;;;;7374237;19;20007;-77
2023/01/21 01:40:00;;;;;;;20.73;13.40;;;-1.00;1.00;;;;;;7371415;19;20025;-77
2023/01/21 01:42:30;;;;;;;23.90;13.80;;;-1.00;1.00;;;;;;7395052;19;20532;-78
2023/01/21 01:45:03;;;;;;;21.55;13.82;;;-1.10;1.00;;;;;;7373430;19;20018;-78
2023/01/21 01:47:41;;;;;;;19.50;13.65;;;-1.20;1.00;;;;;;7372512;19;20003;-77
2023/01/21 01:50:19;;;;;;;19.33;12.95;;;-1.20;1.00;;;;;;7371096;19;20085;-78
2023/01/21 01:52:49;;;;;;;20.08;13.27;;;-1.30;1.00;;;;;;7373397;19;20017;-78
2023/01/21 01:55:19;;;;;;;19.85;12.90;;;-1.30;1.00;;;;;;7373033;19;20045;-77
2023/01/21 01:57:52;;;;;;;21.23;12.70;;;-1.30;1.00;;;;;;7372482;19;20384;-78
2023/01/21 02:00:23;;;;;;;21.83;13.40;;;-1.40;1.00;;;;;;7390815;19;20018;-77
2023/01/21 02:05:39;;;;;;;20.40;13.02;;;-1.40;1.00;;;;;;7371267;19;20011;-77
2023/01/21 02:08:10;;;;;;;18.85;12.77;;;-1.40;1.00;;;;;;7372976;19;20021;-77
2023/01/21 02:10:40;;;;;;;20.95;14.07;;;-1.50;1.00;;;;;;7370125;19;20031;-77
2023/01/21 02:13:10;;;;;;;17.88;13.05;;;-1.50;1.00;;;;;;7371520;19;20356;-77
2023/01/21 02:15:52;;;;;;;18.23;13.50;;;-1.50;1.00;;;;;;7393241;19;20018;-77
2023/01/21 02:18:32;;;;;;;20.63;14.10;;;-1.50;1.10;;;;;;7371429;19;20010;-77
2023/01/21 02:21:32;;;;;;;19.55;13.57;;;-1.60;1.10;;;;;;7371694;19;20010;-78
2023/01/21 02:24:44;;;;;;;19.58;13.90;;;-1.70;1.10;;;;;;7372109;19;20011;-78
2023/01/21 02:27:32;;;;;;;19.73;13.05;;;-1.70;1.30;;;;;;7371567;19;20026;-78
2023/01/21 02:30:41;;;;;;;22.42;14.38;;;-1.80;2.60;;;;;;7369497;19;20095;-77
2023/01/21 02:33:44;;;;;;;25.02;15.05;;;-1.80;3.70;;;;;;7370983;19;20023;-77
2023/01/21 02:36:42;;;;;;;23.05;14.35;;;-1.80;4.30;;;;;;7371722;19;20010;-77
2023/01/21 02:39:25;;;;;;;21.00;14.77;;;-1.90;3.90;;;;;;7370729;19;20400;-76
2023/01/21 02:42:06;;;;;;;22.33;15.00;;;-1.90;4.90;;;;;;7371346;19;20007;-77
2023/01/21 02:44:42;;;;;;;23.70;14.65;;;-1.90;5.20;;;;;;7370964;19;20017;-78
2023/01/21 02:47:27;;;;;;;23.48;14.82;;;-2.00;5.80;;;;;;7369010;19;20007;-78
2023/01/21 02:50:05;;;;;;;22.65;14.38;;;-2.00;5.60;;;;;;7369841;19;20009;-77
2023/01/21 02:52:34;;;;;;;20.77;14.57;;;-2.10;6.00;;;;;;7371248;19;20010;-77
2023/01/21 02:55:05;;;;;;;24.67;15.02;;;-2.10;6.20;;;;;;7371136;19;20013;-77
2023/01/21 02:57:41;;;;;;;22.45;14.75;;;-2.10;6.20;;;;;;7392351;19;20007;-77
2023/01/21 03:00:17;;;;;;;22.15;15.18;;;-2.10;6.40;;;;;;7369450;19;20006;-78
2023/01/21 03:03:11;;;;;;;22.48;14.05;;;-2.10;6.80;;;;;;7369996;19;20034;-78
2023/01/21 03:05:56;;;;;;;22.77;14.73;;;-2.20;7.00;;;;;;7368421;19;20801;-76
2023/01/21 03:08:35;;;;;;;23.63;14.65;;;-2.20;7.00;;;;;;7368202;19;20031;-77
2023/01/21 03:11:14;;;;;;;23.80;15.18;;;-2.10;7.90;;;;;;7370768;19;20478;-77
2023/01/21 03:19:20;;;;;;;20.55;14.52;;;-2.20;5.70;;;;;;7370170;19;20521;-77
2023/01/21 03:21:55;;;;;;;23.45;14.00;;;-2.10;5.30;;;;;;7369133;19;20018;-77
2023/01/21 03:24:25;;;;;;;22.70;13.73;;;-2.10;5.50;;;;;;7390786;19;20094;-77
2023/01/21 03:26:58;;;;;;;23.77;14.45;;;-2.20;4.70;;;;;;7368986;19;20376;-78
2023/01/21 03:29:32;;;;;;;22.13;14.13;;;-2.20;5.20;;;;;;7367688;19;20002;-78
2023/01/21 03:32:05;;;;;;;23.15;14.15;;;-2.20;4.40;;;;;;7369188;19;20011;-78
2023/01/21 03:34:39;;;;;;;24.30;14.73;;;-2.20;4.80;;;;;;7369879;19;20007;-78
2023/01/21 03:37:17;;;;;;;19.42;13.60;;;-2.20;4.60;;;;;;7370007;19;20105;-77
2023/01/21 03:39:50;;;;;;;22.98;15.23;;;-2.20;4.50;;;;;;7379869;19;20015;-79
2023/01/21 03:42:21;;;;;;;24.92;14.45;;;-2.20;4.90;;;;;;7389465;19;20090;-78
2023/01/21 03:44:51;;;;;;;23.80;13.55;;;-2.20;5.00;;;;;;7369068;19;20015;-78
2023/01/21 03:47:27;;;;;;;20.98;14.30;;;-2.30;5.60;;;;;;7368343;19;20021;-78
2023/01/21 03:50:02;;;;;;;22.00;14.27;;;-2.20;6.20;;;;;;7367920;19;20082;-78
2023/01/21 03:52:35;;;;;;;23.77;14.55;;;-2.30;6.90;;;;;;7369555;19;20476;-78
2023/01/21 03:55:05;;;;;;;21.42;14.00;;;-2.30;6.50;;;;;;7369677;19;20459;-78
2023/01/21 03:57:35;;;;;;;20.10;13.27;;;-2.30;6.80;;;;;;7390331;19;20350;-78
2023/01/21 04:00:07;;;;;;;23.05;14.13;;;-2.60;6.50;;;;;;7367137;19;20070;-77
2023/01/21 04:02:37;;;;;;;20.30;14.13;;;-2.70;7.70;;;;;;7368693;19;20014;-78
2023/01/21 04:05:08;;;;;;;23.30;14.73;;;-2.70;8.20;;;;;;7370018;19;20062;-78
2023/01/21 04:07:40;;;;;;;23.20;15.25;;;-2.70;9.20;;;;;;7368106;19;20094;-77
2023/01/21 04:10:12;;;;;;;24.75;15.13;;;-2.70;10.30;;;;;;7367076;19;20011;-77
2023/01/21 04:12:42;;;;;;;25.55;15.48;;;-2.70;10.90;;;;;;7389618;19;20015;-77
2023/01/21 04:15:13;;;;;;;20.77;14.75;;;-2.70;11.20;;;;;;7369346;19;20007;-77
2023/01/21 04:17:42;;;;;;;23.77;15.52;;;-2.70;11.60;;;;;;7373193;19;20010;-78
2023/01/21 04:20:14;;;;;;;26.25;15.60;;;-2.70;11.80;;;;;;7377730;19;20014;-78
2023/01/21 04:22:47;;;;;;;22.77;14.73;;;-2.70;11.80;;;;;;7375672;19;20074;-78
2023/01/21 04:25:17;;;;;;;25.63;16.60;;;-2.70;11.20;;;;;;7376380;19;20428;-77
2023/01/21 04:27:46;;;;;;;24.20;15.98;;;-2.80;11.90;;;;;;7388575;19;20014;-78
2023/01/21 04:30:17;;;;;;;22.98;15.68;;;-2.80;12.60;;;;;;7394413;19;20363;-77
2023/01/21 04:32:47;;;;;;;21.98;14.73;;;-2.80;12.40;;;;;;7375010;19;20098;-76
2023/01/21 04:35:17;;;;;;;24.63;15.57;;;-2.80;12.90;;;;;;7375198;19;20006;-77
2023/01/21 04:37:50;;;;;;;28.55;17.65;;;-2.90;12.90;;;;;;7373808;19;20010;-78
2023/01/21 04:40:20;;;;;;;26.70;16.65;;;-2.80;13.90;;;;;;7372744;19;20006;-78
2023/01/21 04:42:50;;;;;;;27.50;17.55;;;-2.80;14.40;;;;;;7375013;19;20081;-78
2023/01/21 04:45:20;;;;;;;29.08;17.92;;;-2.80;14.40;;;;;;7396104;19;20014;-77
2023/01/21 04:47:49;;;;;;;27.63;17.02;;;-2.80;14.60;;;;;;7373969;19;20466;-77
2023/01/21 04:50:20;;;;;;;27.20;16.73;;;-2.80;14.60;;;;;;7372592;19;20030;-77
2023/01/21 04:52:52;;;;;;;27.23;19.00;;;-2.90;15.70;;;;;;7374040;19;20011;-77
2023/01/21 04:55:22;;;;;;;26.80;17.90;;;-3.00;14.50;;;;;;7374360;19;20010;-77
2023/01/21 04:57:55;;;;;;;26.75;17.20;;;-3.00;16.60;;;;;;7375032;19;20010;-77
2023/01/21 05:00:25;;;;;;;27.75;17.65;;;-3.00;17.40;;;;;;7392122;19;20473;-77
2023/01/21 05:02:55;;;;;;;30.35;18.00;;;-3.00;19.10;;;;;;7374326;19;20033;-77
2023/01/21 05:05:24;;;;;;;28.77;18.67;;;-3.00;19.90;;;;;;7373612;19;20018;-77
2023/01/21 05:07:57;;;;;;;28.75;18.95;;;-3.10;20.10;;;;;;7373970;19;20024;-77
2023/01/21 05:10:27;;;;;;;28.25;19.73;;;-3.10;20.60;;;;;;7372213;19;20099;-77
2023/01/21 05:12:57;;;;;;;28.85;18.67;;;-3.20;21.70;;;;;;7373808;19;20017;-77
2023/01/21 05:15:26;;;;;;;34.67;20.02;;;-3.10;21.30;;;;;;7394669;19;20510;-77
2023/01/21 05:17:56;;;;;;;31.92;20.23;;;-3.10;21.70;;;;;;7373556;19;20015;-78
2023/01/21 05:20:26;;;;;;;36.88;21.27;;;-3.20;22.30;;;;;;7372808;19;20020;-78
2023/01/21 05:22:59;;;;;;;35.53;21.83;;;-3.20;22.40;;;;;;7374204;19;20515;-78
2023/01/21 05:25:28;;;;;;;34.80;21.83;;;-3.30;22.40;;;;;;7374343;19;20034;-78
2023/01/21 05:27:58;;;;;;;39.78;23.20;;;-3.30;23.50;;;;;;7373387;19;20476;-79
2023/01/21 05:30:28;;;;;;;38.63;22.92;;;-3.40;23.40;;;;;;7392162;19;20017;-78
2023/01/21 05:32:58;;;;;;;43.10;26.00;;;-3.40;23.70;;;;;;7373456;19;20007;-77
2023/01/21 05:35:28;;;;;;;43.20;25.10;;;-3.40;24.30;;;;;;7371654;19;20446;-78
2023/01/21 05:38:00;;;;;;;48.90;27.65;;;-3.40;24.00;;;;;;7373048;19;20131;-78
2023/01/21 05:40:30;;;;;;;46.25;26.85;;;-3.50;24.00;;;;;;7371430;19;20533;-77
2023/01/21 05:43:00;;;;;;;47.55;27.20;;;-3.50;24.20;;;;;;7372804;19;20015;-78
2023/01/21 05:45:30;;;;;;;49.70;27.92;;;-3.50;24.40;;;;;;7394433;19;20011;-78
2023/01/21 05:48:00;;;;;;;55.08;30.40;;;-3.50;24.50;;;;;;7372941;19;20470;-78
2023/01/21 05:50:31;;;;;;;51.88;30.63;;;-3.50;24.50;;;;;;7369454;19;20006;-78
2023/01/21 05:53:03;;;;;;;51.78;28.70;;;-3.60;24.20;;;;;;7372994;19;20087;-78
2023/01/21 05:55:33;;;;;;;57.03;29.90;;;-3.60;24.60;;;;;;7372411;19;20098;-78
2023/01/21 05:58:03;;;;;;;55.42;30.08;;;-3.70;24.70;;;;;;7372842;19;20010;-78
2023/01/21 06:00:33;;;;;;;62.47;31.90;;;-3.80;24.60;;;;;;7391284;19;20007;-78
2023/01/21 06:03:03;;;;;;;60.53;31.27;;;-3.70;25.20;;;;;;7372649;19;20062;-78
2023/01/21 06:05:33;;;;;;;56.47;29.67;;;-3.70;25.60;;;;;;7371879;19;20359;-77
2023/01/21 06:08:06;;;;;;;57.28;31.00;;;-3.70;25.60;;;;;;7373058;19;20102;-76
2023/01/21 06:10:35;;;;;;;54.95;30.42;;;-3.70;26.10;;;;;;7370158;19;20003;-77
2023/01/21 06:13:05;;;;;;;61.97;31.75;;;-3.80;25.80;;;;;;7372278;19;20014;-77
2023/01/21 06:15:35;;;;;;;60.83;31.95;;;-3.80;26.30;;;;;;7392756;19;20074;-78
2023/01/21 06:18:05;;;;;;;60.08;31.67;;;-3.80;26.30;;;;;;7371885;19;20014;-78
2023/01/21 06:20:35;;;;;;;62.53;31.08;;;-3.80;26.50;;;;;;7370234;19;20009;-77
2023/01/21 06:23:08;;;;;;;58.08;31.33;;;-3.80;27.10;;;;;;7372283;19;20494;-77
2023/01/21 06:25:39;;;;;;;59.20;30.15;;;-3.80;26.70;;;;;;7371792;19;20400;-78
2023/01/21 06:28:11;;;;;;;56.25;29.15;;;-3.80;26.70;;;;;;7372245;19;20339;-77
2023/01/21 06:30:41;;;;;;;56.83;30.17;;;-3.80;26.10;;;;;;7391057;19;20086;-78
2023/01/21 06:33:11;;;;;;;55.53;28.63;;;-3.90;25.70;;;;;;7371462;19;20007;-77
2023/01/21 06:35:41;;;;;;;54.30;28.15;;;-3.90;26.70;;;;;;7371181;19;20007;-77
2023/01/21 06:38:13;;;;;;;55.95;28.73;;;-3.90;27.20;;;;;;7371945;19;20014;-78
2023/01/21 06:40:44;;;;;;;52.90;26.35;;;-3.90;26.90;;;;;;7369047;19;20014;-77
2023/01/21 06:43:14;;;;;;;52.55;27.83;;;-3.80;26.90;;;;;;7371941;19;20495;-77
2023/01/21 06:45:44;;;;;;;56.75;28.40;;;-3.80;26.90;;;;;;7392981;19;20395;-78
2023/01/21 06:48:14;;;;;;;51.33;28.10;;;-3.90;26.70;;;;;;7371343;19;20013;-77
2023/01/21 06:50:44;;;;;;;56.05;29.20;;;-3.90;27.30;;;;;;7369418;19;20015;-77
2023/01/21 06:53:16;;;;;;;56.92;28.83;;;-3.80;26.60;;;;;;7371725;19;20339;-73
2023/01/21 06:55:46;;;;;;;51.58;27.02;;;-3.80;26.70;;;;;;7370369;19;20007;-76
2023/01/21 06:58:16;;;;;;;55.65;26.52;;;-3.80;26.30;;;;;;7370873;19;20002;-76
2023/01/21 07:00:46;;;;;;;51.08;27.88;;;-3.90;25.50;;;;;;7386864;19;20010;-79
2023/01/21 07:03:16;;;;;;;57.22;29.85;;;-3.80;26.50;;;;;;7392865;19;20011;-77
2023/01/21 07:05:46;;;;;;;56.95;27.98;;;-3.80;26.20;;;;;;7369748;19;20038;-78
2023/01/21 07:08:18;;;;;;;53.25;27.40;;;-3.70;26.30;;;;;;7371007;19;20010;-77
2023/01/21 07:10:48;;;;;;;50.60;26.75;;;-3.70;26.20;;;;;;7370184;19;20003;-77
2023/01/21 07:13:18;;;;;;;48.00;27.25;;;-3.70;25.40;;;;;;7371103;19;20011;-77
2023/01/21 07:15:50;;;;;;;54.03;27.88;;;-3.60;26.40;;;;;;7374513;19;20011;-79
2023/01/21 07:18:20;;;;;;;51.58;26.40;;;-3.60;25.50;;;;;;7391704;19;20022;-78
2023/01/21 07:20:49;;;;;;;54.35;26.63;;;-3.50;25.40;;;;;;7369828;19;20006;-78
2023/01/21 07:23:22;;;;;;;50.17;25.88;;;-3.50;24.70;;;;;;7370922;19;20006;-77
2023/01/21 07:25:52;;;;;;;52.75;26.95;;;-3.50;24.40;;;;;;7370187;19;20025;-78
2023/01/21 07:28:22;;;;;;;54.90;27.55;;;-3.40;24.30;;;;;;7367377;19;20044;-78
2023/01/21 07:30:51;;;;;;;54.58;26.02;;;-3.30;23.80;;;;;;7367785;19;20022;-77
2023/01/21 07:33:21;;;;;;;48.70;26.25;;;-3.40;23.40;;;;;;7390913;19;20090;-78
2023/01/21 07:35:51;;;;;;;47.28;26.05;;;-3.30;22.40;;;;;;7369136;19;20017;-77
2023/01/21 07:38:24;;;;;;;52.30;26.48;;;-3.30;21.80;;;;;;7368108;19;20482;-78
2023/01/21 07:40:54;;;;;;;50.92;27.48;;;-3.30;21.50;;;;;;7370184;19;20078;-77
2023/01/21 07:43:23;;;;;;;48.13;26.20;;;-3.20;21.40;;;;;;7368766;19;20010;-78
2023/01/21 07:45:54;;;;;;;48.38;24.38;;;-3.20;19.70;;;;;;7369569;19;20007;-77
2023/01/21 07:48:23;;;;;;;42.78;23.88;;;-3.20;19.90;;;;;;7388913;19;20010;-77
2023/01/21 07:50:53;;;;;;;46.40;23.38;;;-3.20;19.10;;;;;;7367729;19;20014;-77
2023/01/21 07:53:26;;;;;;;44.58;22.30;;;-3.20;19.50;;;;;;7375058;19;20497;-77
2023/01/21 07:55:56;;;;;;;43.50;23.00;;;-3.20;18.30;;;;;;7376998;19;20007;-78
2023/01/21 07:58:26;;;;;;;50.35;23.55;;;-3.10;18.90;;;;;;7376173;19;20035;-77
2023/01/21 08:00:56;;;;;;;45.03;23.13;;;-3.20;18.50;;;;;;7375880;19;20017;-77
2023/01/21 08:03:27;;;;;;;41.00;21.30;;;-3.00;19.00;;;;;;7397030;19;20529;-78
2023/01/21 08:05:57;;;;;;;43.33;22.30;;;-3.00;18.70;;;;;;7374587;19;20011;-77
2023/01/21 08:08:29;;;;;;;40.05;21.73;;;-2.90;18.60;;;;;;7373363;19;20492;-78
2023/01/21 08:10:59;;;;;;;39.47;20.90;;;-2.90;17.80;;;;;;7372503;19;20236;-77
2023/01/21 08:13:29;;;;;;;36.88;21.15;;;-2.90;18.20;;;;;;7375135;19;20095;-78
2023/01/21 08:15:59;;;;;;;37.80;21.50;;;-2.80;18.90;;;;;;7374557;19;20324;-78
2023/01/21 08:18:30;;;;;;;35.10;19.63;;;-2.80;18.10;;;;;;7396035;19;20470;-76
2023/01/21 08:21:00;;;;;;;35.65;18.73;;;-2.70;17.50;;;;;;7375768;19;20546;-78
2023/01/21 08:23:33;;;;;;;39.80;20.00;;;-2.70;16.70;;;;;;7373341;19;20039;-78
2023/01/21 08:26:04;;;;;;;36.40;19.77;;;-2.60;17.00;;;;;;7375269;19;20014;-78
2023/01/21 08:28:34;;;;;;;35.10;20.13;;;-2.60;16.60;;;;;;7374234;19;20102;-78
2023/01/21 08:31:06;;;;;;;36.67;19.25;;;-2.60;16.20;;;;;;7374943;19;20094;-78
2023/01/21 08:33:36;;;;;;;41.65;20.60;;;-2.70;15.80;;;;;;7396547;19;20494;-77
2023/01/21 08:36:08;;;;;;;43.75;22.45;;;-2.60;16.60;;;;;;7375342;19;20069;-77
2023/01/21 08:38:40;;;;;;;39.97;21.45;;;-2.50;16.40;;;;;;7373421;19;20101;-78
2023/01/21 08:41:10;;;;;;;40.35;21.58;;;-2.40;16.70;;;;;;7374645;19;20038;-78
2023/01/21 08:43:41;;;;;;;38.03;19.83;;;-2.40;14.90;;;;;;7374529;19;20022;-78
2023/01/21 08:46:11;;;;;;;39.90;20.90;;;-2.40;15.00;;;;;;7375491;19;20014;-79
2023/01/21 08:48:41;;;;;;;42.08;19.60;;;-2.30;14.90;;;;;;7395601;19;20035;-79
2023/01/21 08:51:11;;;;;;;35.00;20.50;;;-2.20;13.30;;;;;;7374106;19;20010;-77
2023/01/21 08:53:44;;;;;;;38.10;20.00;;;-2.20;12.60;;;;;;7374038;19;20075;-78
2023/01/21 08:56:13;;;;;;;36.67;19.38;;;-2.20;11.60;;;;;;7373019;19;20014;-78
2023/01/21 08:58:44;;;;;;;40.97;20.48;;;-2.10;13.80;;;;;;7372473;19;20018;-78
2023/01/21 09:01:16;;;;;;;37.08;20.80;;;-1.90;13.80;;;;;;7375183;19;20087;-78
2023/01/21 09:03:45;;;;;;;37.22;21.27;;;-2.00;10.80;;;;;;7394463;19;20014;-79
2023/01/21 09:06:15;;;;;;;36.05;20.45;;;-1.80;12.30;;;;;;7374484;19;20007;-78
2023/01/21 09:08:48;;;;;;;34.45;19.70;;;-1.80;11.70;;;;;;7372420;19;20020;-78
2023/01/21 09:11:18;;;;;;;34.58;19.00;;;-1.80;11.70;;;;;;7374020;19;20011;-79
2023/01/21 09:13:47;;;;;;;35.17;19.98;;;-1.80;11.50;;;;;;7373899;19;20490;-79
2023/01/21 09:16:19;;;;;;;33.85;18.70;;;-1.90;12.10;;;;;;7374495;19;20023;-79
2023/01/21 09:18:49;;;;;;;31.48;18.05;;;-1.80;12.60;;;;;;7372216;19;20031;-79
2023/01/21 09:21:19;;;;;;;33.85;19.17;;;-1.80;13.10;;;;;;7395180;19;20007;-79
2023/01/21 09:23:52;;;;;;;35.40;18.55;;;-1.70;12.70;;;;;;7373953;19;20696;-79
2023/01/21 09:26:23;;;;;;;37.88;18.67;;;-1.70;13.30;;;;;;7372804;19;20083;-78
2023/01/21 09:28:55;;;;;;;33.97;17.63;;;-1.70;13.10;;;;;;7373205;19;20023;-79
2023/01/21 09:31:26;;;;;;;33.58;19.27;;;-1.70;12.60;;;;;;7370993;19;20034;-79
2023/01/21 09:33:58;;;;;;;35.38;19.38;;;-1.60;13.30;;;;;;7373054;19;20010;-78
2023/01/21 09:36:30;;;;;;;38.35;20.73;;;-1.50;12.20;;;;;;7393631;19;20022;-78
2023/01/21 09:39:02;;;;;;;37.50;21.02;;;-1.40;12.00;;;;;;7371225;19;20457;-79
2023/01/21 09:41:37;;;;;;;35.55;18.70;;;-1.30;12.10;;;;;;7371679;19;20016;-79
2023/01/21 09:44:16;;;;;;;36.75;19.55;;;-1.30;11.40;;;;;;7373430;19;20090;-78
2023/01/21 09:46:54;;;;;;;35.58;19.65;;;-1.30;10.80;;;;;;7373683;19;20086;-78
2023/01/21 09:49:28;;;;;;;34.30;19.25;;;-1.40;10.50;;;;;;7372722;19;20007;-79
2023/01/21 09:52:07;;;;;;;34.58;19.70;;;-1.30;11.20;;;;;;7371577;19;20025;-79
2023/01/21 09:54:40;;;;;;;36.22;20.85;;;-1.20;10.80;;;;;;7393943;19;20030;-79
2023/01/21 09:57:33;;;;;;;38.42;20.42;;;-1.20;9.90;;;;;;7372203;19;20454;-78
2023/01/21 10:00:18;;;;;;;33.97;19.48;;;-1.30;9.60;;;;;;7370032;19;20458;-79
2023/01/21 10:02:55;;;;;;;41.35;20.38;;;-1.20;10.50;;;;;;7371464;19;20038;-79
2023/01/21 10:05:44;;;;;;;33.65;19.77;;;-1.10;10.10;;;;;;7370834;19;20010;-79
2023/01/21 10:08:23;;;;;;;38.80;19.48;;;-0.90;9.30;;;;;;7372478;19;20002;-78
2023/01/21 10:11:02;;;;;;;38.30;19.95;;;-1.00;9.60;;;;;;7371654;19;20006;-79
2023/01/21 10:13:49;;;;;;;35.95;19.80;;;-1.00;8.30;;;;;;7370445;19;20011;-79
2023/01/21 10:16:26;;;;;;;40.28;18.25;;;-1.10;8.70;;;;;;7369769;19;20130;-79
2023/01/21 10:18:58;;;;;;;37.25;18.45;;;-1.10;8.70;;;;;;7370027;19;20078;-77
2023/01/21 10:21:36;;;;;;;33.63;18.38;;;-0.90;8.80;;;;;;7392313;19;20010;-79
2023/01/21 10:24:12;;;;;;;34.67;19.02;;;-1.00;8.80;;;;;;7371204;19;20017;-79
2023/01/21 10:26:46;;;;;;;38.67;19.88;;;-1.00;7.20;;;;;;7370010;19;20006;-79
2023/01/21 10:29:19;;;;;;;40.88;21.10;;;-1.00;8.30;;;;;;7370430;19;20526;-79
2023/01/21 10:31:58;;;;;;;31.98;19.98;;;-1.00;8.70;;;;;;7370100;19;20070;-80
2023/01/21 10:34:31;;;;;;;34.30;18.10;;;-1.00;8.70;;;;;;7369459;19;20724;-78
2023/01/21 10:37:08;;;;;;;33.25;18.77;;;-0.90;9.40;;;;;;7371281;19;20543;-81
2023/01/21 10:39:48;;;;;;;33.50;19.48;;;-1.00;8.00;;;;;;7390803;19;20477;-79
2023/01/21 10:42:40;;;;;;;31.00;18.63;;;-1.00;9.30;;;;;;7370931;19;20002;-80
2023/01/21 10:45:19;;;;;;;32.63;18.35;;;-1.00;9.50;;;;;;7372076;19;20950;-79
2023/01/21 10:47:53;;;;;;;34.90;18.90;;;-0.90;9.50;;;;;;7368901;19;20045;-80
2023/01/21 10:50:35;;;;;;;31.15;17.35;;;-0.60;9.00;;;;;;7368548;19;20010;-79
2023/01/21 10:53:13;;;;;;;32.42;18.63;;;-0.70;7.80;;;;;;7370676;19;20022;-79
2023/01/21 10:56:00;;;;;;;31.67;17.52;;;-0.70;6.00;;;;;;7369839;19;20017;-80
2023/01/21 10:58:37;;;;;;;27.70;17.67;;;-0.60;7.10;;;;;;7367584;19;20364;-80
2023/01/21 11:01:11;;;;;;;30.98;17.40;;;-0.60;7.00;;;;;;7369487;19;20476;-82
2023/01/21 11:03:43;;;;;;;33.60;17.45;;;-0.60;6.60;;;;;;7391791;19;20018;-81
2023/01/21 11:06:17;;;;;;;33.17;16.85;;;-0.60;7.90;;;;;;7370581;19;20470;-79
2023/01/21 11:08:50;;;;;;;34.33;17.33;;;-0.60;5.90;;;;;;7368369;19;20065;-79
2023/01/21 11:11:28;;;;;;;29.88;16.88;;;-0.70;6.20;;;;;;7369810;19;20002;-80
2023/01/21 11:14:00;;;;;;;30.25;17.33;;;-0.90;5.80;;;;;;7368576;19;20014;-80
2023/01/21 11:16:36;;;;;;;38.25;18.48;;;-0.60;6.60;;;;;;7370221;19;20014;-80
2023/01/21 11:19:08;;;;;;;33.60;18.42;;;-0.70;6.20;;;;;;7370129;19;20471;-80
2023/01/21 11:21:40;;;;;;;26.65;15.55;;;-0.60;5.60;;;;;;7396419;19;20026;-80
2023/01/21 11:24:24;;;;;;;26.38;16.30;;;-0.70;5.30;;;;;;7371326;19;20017;-80
2023/01/21 11:26:55;;;;;;;27.23;15.55;;;-0.60;5.50;;;;;;7368365;19;20070;-81
2023/01/21 11:29:30;;;;;;;31.58;17.50;;;-0.70;4.60;;;;;;7367240;19;20007;-81
2023/01/21 11:32:05;;;;;;;31.30;16.50;;;-0.60;5.40;;;;;;7368517;19;20014;-79
2023/01/21 11:34:35;;;;;;;32.30;15.02;;;-0.40;4.90;;;;;;7369083;19;20022;-79
2023/01/21 11:37:07;;;;;;;30.63;16.17;;;-0.50;3.70;;;;;;7369726;19;20013;-79
2023/01/21 11:39:40;;;;;;;33.17;16.05;;;-0.50;3.00;;;;;;7389037;19;20010;-80
2023/01/21 11:42:16;;;;;;;33.97;16.27;;;-0.40;2.30;;;;;;7368840;19;20017;-80
2023/01/21 11:44:56;;;;;;;27.33;15.18;;;-0.30;2.50;;;;;;7367896;19;20530;-80
2023/01/21 11:47:38;;;;;;;28.83;14.80;;;-0.50;1.80;;;;;;7369097;19;20002;-79
2023/01/21 11:50:17;;;;;;;27.50;15.75;;;-0.40;1.30;;;;;;7367977;19;20462;-80
2023/01/21 11:52:48;;;;;;;33.40;15.77;;;-0.40;1.00;;;;;;7369102;19;20486;-82
2023/01/21 11:55:24;;;;;;;32.88;16.50;;;-0.50;1.40;;;;;;7368466;19;20010;-79
2023/01/21 11:57:56;;;;;;;30.38;14.95;;;-0.40;2.10;;;;;;7368731;19;20010;-81
2023/01/21 12:00:29;;;;;;;29.38;14.95;;;-0.60;2.50;;;;;;7387306;19;20518;-80
2023/01/21 12:03:02;;;;;;;29.42;15.82;;;-0.60;3.40;;;;;;7368624;19;20010;-80
2023/01/21 12:05:35;;;;;;;28.25;14.30;;;-0.60;4.40;;;;;;7367626;19;20077;-81
2023/01/21 12:08:06;;;;;;;28.10;14.10;;;-0.60;3.90;;;;;;7367063;19;20066;-80
2023/01/21 12:10:43;;;;;;;32.83;15.20;;;-0.60;3.90;;;;;;7366009;19;20011;-79
2023/01/21 12:13:20;;;;;;;29.65;14.45;;;-0.60;3.30;;;;;;7367645;19;20523;-80
2023/01/21 12:16:14;;;;;;;28.95;15.07;;;-0.70;3.90;;;;;;7367936;19;20006;-82
2023/01/21 12:19:17;;;;;;;28.73;14.20;;;-0.50;4.00;;;;;;7389584;19;20014;-80
2023/01/21 12:22:16;;;;;;;31.30;15.45;;;-0.50;2.90;;;;;;7266225;19;2004398;-79
2023/01/21 12:25:07;;;;;;;29.52;16.08;;;-0.50;2.50;;;;;;7384595;19;20011;-83
2023/01/21 12:27:48;;;;;;;29.08;15.63;;;-0.40;2.90;;;;;;7388851;19;20007;-81
2023/01/21 12:30:26;;;;;;;27.83;13.60;;;-0.30;1.30;;;;;;7365018;19;20339;-79
2023/01/21 12:33:02;;;;;;;27.48;14.25;;;-0.20;1.80;;;;;;7366908;19;20014;-79
2023/01/21 12:35:37;;;;;;;25.00;13.25;;;-0.20;1.00;;;;;;7366943;19;20375;-81
2023/01/21 12:38:13;;;;;;;26.45;13.00;;;-0.30;1.00;;;;;;7367633;19;20035;-81
2023/01/21 12:40:47;;;;;;;25.02;12.85;;;-0.40;1.90;;;;;;7373074;19;20003;-81
2023/01/21 12:43:24;;;;;;;26.75;14.10;;;-0.40;2.70;;;;;;7375693;19;20010;-82
2023/01/21 12:45:58;;;;;;;32.25;13.55;;;-0.40;3.20;;;;;;7374641;19;20022;-82
2023/01/21 12:48:35;;;;;;;30.42;14.38;;;-0.40;3.80;;;;;;7394406;19;20133;-81
2023/01/21 12:51:09;;;;;;;26.00;13.75;;;-0.40;4.60;;;;;;7374845;19;20007;-81
2023/01/21 12:53:45;;;;;;;30.35;15.00;;;-0.60;4.80;;;;;;7373049;19;20111;-81
2023/01/21 12:56:25;;;;;;;29.48;15.27;;;-0.60;6.10;;;;;;7373507;19;20025;-81
2023/01/21 12:58:58;;;;;;;31.58;15.10;;;-0.60;8.20;;;;;;7371359;19;20360;-81
2023/01/21 13:01:43;;;;;;;28.38;15.48;;;-0.60;9.60;;;;;;7372734;19;20086;-82
2023/01/21 13:04:29;;;;;;;34.67;15.30;;;-0.70;9.00;;;;;;7372613;19;20014;-81
2023/01/21 13:07:04;;;;;;;30.00;15.40;;;-0.60;10.30;;;;;;7374300;19;20080;-81
2023/01/21 13:09:43;;;;;;;33.55;16.13;;;-0.60;10.20;;;;;;7394367;19;20077;-81
2023/01/21 13:12:16;;;;;;;31.98;17.20;;;-0.60;10.40;;;;;;7373831;19;20461;-81
2023/01/21 13:14:49;;;;;;;28.15;16.15;;;-0.60;11.50;;;;;;7372023;19;20010;-80